sensor_id;sensor_type;location;lat;lon;timestamp;P1;durP1;ratioP1;P2;durP2;ratioP2
9783;SDS011;4931;44.874;-1.092;2023-02-22T00:01:08;30.55;;;13.18;;
9783;SDS011;4931;44.874;-1.092;2023-02-22T00:04:12;34.15;;;14.85;;
9783;SDS011;4931;44.874;-1.092;2023-02-22T00:06:38;36.88;;;16.55;;
9783;SDS011;4931;44.874;-1.092;2023-02-22T00:09:03;36.53;;;16.40;;
9783;SDS011;4931;44.874;-1.092;2023-02-22T00:11:30;33.25;;;14.55;;
9783;SDS011;4931;44.874;-1.092;2023-02-22T00:13:55;35.33;;;13.90;;
9783;SDS011;4931;44.874;-1.092;2023-02-22T00:16:21;30.40;;;13.18;;
9783;SDS011;4931;44.874;-1.092;2023-02-22T00:18:48;36.92;;;13.85;;
9783;SDS011;4931;44.874;-1.092;2023-02-22T00:21:15;37.88;;;13.05;;
9783;SDS011;4931;44.874;-1.092;2023-02-22T00:23:42;36.85;;;13.77;;
9783;SDS011;4931;44.874;-1.092;2023-02-22T00:26:14;37.15;;;12.02;;
9783;SDS011;4931;44.874;-1.092;2023-02-22T00:31:10;34.80;;;12.32;;
9783;SDS011;4931;44.874;-1.092;2023-02-22T00:33:37;34.13;;;12.90;;
9783;SDS011;4931;44.874;-1.092;2023-02-22T00:36:03;36.13;;;12.70;;
9783;SDS011;4931;44.874;-1.092;2023-02-22T00:38:29;38.42;;;13.35;;
9783;SDS011;4931;44.874;-1.092;2023-02-22T00:40:54;37.70;;;12.50;;
9783;SDS011;4931;44.874;-1.092;2023-02-22T00:43:20;36.70;;;12.95;;
9783;SDS011;4931;44.874;-1.092;2023-02-22T00:45:45;34.40;;;13.48;;
9783;SDS011;4931;44.874;-1.092;2023-02-22T00:48:11;33.78;;;14.05;;
9783;SDS011;4931;44.874;-1.092;2023-02-22T00:50:37;34.33;;;13.10;;
9783;SDS011;4931;44.874;-1.092;2023-02-22T00:53:03;33.88;;;13.40;;
9783;SDS011;4931;44.874;-1.092;2023-02-22T00:55:30;31.70;;;13.95;;
9783;SDS011;4931;44.874;-1.092;2023-02-22T00:57:57;39.45;;;14.23;;
9783;SDS011;4931;44.874;-1.092;2023-02-22T01:02:49;41.45;;;14.13;;
9783;SDS011;4931;44.874;-1.092;2023-02-22T01:05:16;36.13;;;14.48;;
9783;SDS011;4931;44.874;-1.092;2023-02-22T01:07:43;36.28;;;14.27;;
9783;SDS011;4931;44.874;-1.092;2023-02-22T01:10:09;32.83;;;13.20;;
9783;SDS011;4931;44.874;-1.092;2023-02-22T01:12:36;36.50;;;13.65;;
9783;SDS011;4931;44.874;-1.092;2023-02-22T01:15:03;38.05;;;13.63;;
9783;SDS011;4931;44.874;-1.092;2023-02-22T01:17:30;45.72;;;14.68;;
9783;SDS011;4931;44.874;-1.092;2023-02-22T01:19:55;29.73;;;14.55;;
9783;SDS011;4931;44.874;-1.092;2023-02-22T01:22:21;30.98;;;12.90;;
9783;SDS011;4931;44.874;-1.092;2023-02-22T01:24:48;32.58;;;13.98;;
9783;SDS011;4931;44.874;-1.092;2023-02-22T01:27:14;38.40;;;14.57;;
9783;SDS011;4931;44.874;-1.092;2023-02-22T01:29:41;40.15;;;15.50;;
9783;SDS011;4931;44.874;-1.092;2023-02-22T01:32:06;34.13;;;15.43;;
9783;SDS011;4931;44.874;-1.092;2023-02-22T01:34:32;39.10;;;15.27;;
9783;SDS011;4931;44.874;-1.092;2023-02-22T01:36:58;35.53;;;15.02;;
9783;SDS011;4931;44.874;-1.092;2023-02-22T01:39:25;35.10;;;13.85;;
9783;SDS011;4931;44.874;-1.092;2023-02-22T01:41:51;37.83;;;14.23;;
9783;SDS011;4931;44.874;-1.092;2023-02-22T01:44:23;33.28;;;13.23;;
9783;SDS011;4931;44.874;-1.092;2023-02-22T01:46:57;34.83;;;14.13;;
9783;SDS011;4931;44.874;-1.092;2023-02-22T01:49:25;37.83;;;14.32;;
9783;SDS011;4931;44.874;-1.092;2023-02-22T01:51:56;37.38;;;16.20;;
9783;SDS011;4931;44.874;-1.092;2023-02-22T01:56:56;35.60;;;15.52;;
9783;SDS011;4931;44.874;-1.092;2023-02-22T01:59:27;48.15;;;16.60;;
9783;SDS011;4931;44.874;-1.092;2023-02-22T02:01:57;39.17;;;15.60;;
9783;SDS011;4931;44.874;-1.092;2023-02-22T02:04:24;40.90;;;15.93;;
9783;SDS011;4931;44.874;-1.092;2023-02-22T02:06:52;40.95;;;15.73;;
9783;SDS011;4931;44.874;-1.092;2023-02-22T02:09:22;38.53;;;15.93;;
9783;SDS011;4931;44.874;-1.092;2023-02-22T02:11:54;46.60;;;18.08;;
9783;SDS011;4931;44.874;-1.092;2023-02-22T02:14:25;40.53;;;17.08;;
9783;SDS011;4931;44.874;-1.092;2023-02-22T02:16:51;37.20;;;16.10;;
9783;SDS011;4931;44.874;-1.092;2023-02-22T02:28:04;36.05;;;15.70;;
9783;SDS011;4931;44.874;-1.092;2023-02-22T02:33:18;34.75;;;15.90;;
9783;SDS011;4931;44.874;-1.092;2023-02-22T02:38:33;34.88;;;14.80;;
9783;SDS011;4931;44.874;-1.092;2023-02-22T02:41:09;33.83;;;16.02;;
9783;SDS011;4931;44.874;-1.092;2023-02-22T02:43:39;42.00;;;17.48;;
9783;SDS011;4931;44.874;-1.092;2023-02-22T02:48:51;39.25;;;16.35;;
9783;SDS011;4931;44.874;-1.092;2023-02-22T02:51:26;43.30;;;16.50;;
9783;SDS011;4931;44.874;-1.092;2023-02-22T02:53:55;38.78;;;15.90;;
9783;SDS011;4931;44.874;-1.092;2023-02-22T02:56:22;53.33;;;17.85;;
9783;SDS011;4931;44.874;-1.092;2023-02-22T02:58:51;45.50;;;16.23;;
9783;SDS011;4931;44.874;-1.092;2023-02-22T03:01:42;41.78;;;16.33;;
9783;SDS011;4931;44.874;-1.092;2023-02-22T03:09:29;39.38;;;15.98;;
9783;SDS011;4931;44.874;-1.092;2023-02-22T03:15:21;43.25;;;16.85;;
9783;SDS011;4931;44.874;-1.092;2023-02-22T03:23:20;39.15;;;15.30;;
9783;SDS011;4931;44.874;-1.092;2023-02-22T03:25:51;39.58;;;16.15;;
9783;SDS011;4931;44.874;-1.092;2023-02-22T03:28:22;49.10;;;15.73;;
9783;SDS011;4931;44.874;-1.092;2023-02-22T03:30:52;35.42;;;15.55;;
9783;SDS011;4931;44.874;-1.092;2023-02-22T03:33:26;49.00;;;15.45;;
9783;SDS011;4931;44.874;-1.092;2023-02-22T03:36:12;38.90;;;15.13;;
9783;SDS011;4931;44.874;-1.092;2023-02-22T03:38:42;37.08;;;14.65;;
9783;SDS011;4931;44.874;-1.092;2023-02-22T03:41:09;34.88;;;14.98;;
9783;SDS011;4931;44.874;-1.092;2023-02-22T03:43:41;41.47;;;16.05;;
9783;SDS011;4931;44.874;-1.092;2023-02-22T03:46:08;45.00;;;14.88;;
9783;SDS011;4931;44.874;-1.092;2023-02-22T03:51:01;37.45;;;15.77;;
9783;SDS011;4931;44.874;-1.092;2023-02-22T03:53:28;36.92;;;16.88;;
9783;SDS011;4931;44.874;-1.092;2023-02-22T03:55:56;48.40;;;18.05;;
9783;SDS011;4931;44.874;-1.092;2023-02-22T03:58:23;40.97;;;16.33;;
9783;SDS011;4931;44.874;-1.092;2023-02-22T04:00:54;42.10;;;17.15;;
9783;SDS011;4931;44.874;-1.092;2023-02-22T04:03:20;43.15;;;16.40;;
9783;SDS011;4931;44.874;-1.092;2023-02-22T04:05:46;40.03;;;16.85;;
9783;SDS011;4931;44.874;-1.092;2023-02-22T04:08:12;36.78;;;16.02;;
9783;SDS011;4931;44.874;-1.092;2023-02-22T04:10:37;38.72;;;16.48;;
9783;SDS011;4931;44.874;-1.092;2023-02-22T04:13:03;38.22;;;14.73;;
9783;SDS011;4931;44.874;-1.092;2023-02-22T04:15:31;39.78;;;15.63;;
9783;SDS011;4931;44.874;-1.092;2023-02-22T04:17:56;42.97;;;16.15;;
9783;SDS011;4931;44.874;-1.092;2023-02-22T04:20:22;36.55;;;15.85;;
9783;SDS011;4931;44.874;-1.092;2023-02-22T04:22:52;35.17;;;15.45;;
9783;SDS011;4931;44.874;-1.092;2023-02-22T04:25:19;35.30;;;15.48;;
9783;SDS011;4931;44.874;-1.092;2023-02-22T04:27:47;34.75;;;16.05;;
9783;SDS011;4931;44.874;-1.092;2023-02-22T04:30:15;43.15;;;16.48;;
9783;SDS011;4931;44.874;-1.092;2023-02-22T04:32:41;37.72;;;15.50;;
9783;SDS011;4931;44.874;-1.092;2023-02-22T04:35:07;37.97;;;15.77;;
9783;SDS011;4931;44.874;-1.092;2023-02-22T04:37:32;32.03;;;15.98;;
9783;SDS011;4931;44.874;-1.092;2023-02-22T04:39:59;35.85;;;15.80;;
9783;SDS011;4931;44.874;-1.092;2023-02-22T04:42:25;38.28;;;15.98;;
9783;SDS011;4931;44.874;-1.092;2023-02-22T04:44:51;42.00;;;18.38;;
9783;SDS011;4931;44.874;-1.092;2023-02-22T04:47:16;34.83;;;16.63;;
9783;SDS011;4931;44.874;-1.092;2023-02-22T04:49:42;37.08;;;15.80;;
9783;SDS011;4931;44.874;-1.092;2023-02-22T04:52:07;46.38;;;16.33;;
9783;SDS011;4931;44.874;-1.092;2023-02-22T04:54:32;39.28;;;16.77;;
9783;SDS011;4931;44.874;-1.092;2023-02-22T04:56:58;36.78;;;15.52;;
9783;SDS011;4931;44.874;-1.092;2023-02-22T04:59:23;38.47;;;15.60;;
9783;SDS011;4931;44.874;-1.092;2023-02-22T05:01:49;37.05;;;14.98;;
9783;SDS011;4931;44.874;-1.092;2023-02-22T05:04:14;43.40;;;16.45;;
9783;SDS011;4931;44.874;-1.092;2023-02-22T05:06:40;37.25;;;16.00;;
9783;SDS011;4931;44.874;-1.092;2023-02-22T05:09:05;38.63;;;15.32;;
9783;SDS011;4931;44.874;-1.092;2023-02-22T05:11:30;42.90;;;15.02;;
9783;SDS011;4931;44.874;-1.092;2023-02-22T05:13:56;42.05;;;15.63;;
9783;SDS011;4931;44.874;-1.092;2023-02-22T05:16:22;39.13;;;15.27;;
9783;SDS011;4931;44.874;-1.092;2023-02-22T05:18:47;40.80;;;15.65;;
9783;SDS011;4931;44.874;-1.092;2023-02-22T05:21:13;36.55;;;15.18;;
9783;SDS011;4931;44.874;-1.092;2023-02-22T05:23:38;40.38;;;15.52;;
9783;SDS011;4931;44.874;-1.092;2023-02-22T05:26:04;43.10;;;15.77;;
9783;SDS011;4931;44.874;-1.092;2023-02-22T05:28:30;41.05;;;15.10;;
9783;SDS011;4931;44.874;-1.092;2023-02-22T05:30:56;39.25;;;14.93;;
9783;SDS011;4931;44.874;-1.092;2023-02-22T05:33:21;46.05;;;14.85;;
9783;SDS011;4931;44.874;-1.092;2023-02-22T05:35:47;37.65;;;15.00;;
9783;SDS011;4931;44.874;-1.092;2023-02-22T05:38:13;39.40;;;14.77;;
9783;SDS011;4931;44.874;-1.092;2023-02-22T05:40:39;41.80;;;14.60;;
9783;SDS011;4931;44.874;-1.092;2023-02-22T05:43:04;34.42;;;13.05;;
9783;SDS011;4931;44.874;-1.092;2023-02-22T05:45:30;35.63;;;14.25;;
9783;SDS011;4931;44.874;-1.092;2023-02-22T05:47:55;37.17;;;13.50;;
9783;SDS011;4931;44.874;-1.092;2023-02-22T05:50:21;35.75;;;13.13;;
9783;SDS011;4931;44.874;-1.092;2023-02-22T05:52:48;31.98;;;12.43;;
9783;SDS011;4931;44.874;-1.092;2023-02-22T05:55:14;29.73;;;10.55;;
9783;SDS011;4931;44.874;-1.092;2023-02-22T05:57:42;25.92;;;9.85;;
9783;SDS011;4931;44.874;-1.092;2023-02-22T06:00:08;29.20;;;8.73;;
9783;SDS011;4931;44.874;-1.092;2023-02-22T06:02:35;22.67;;;7.85;;
9783;SDS011;4931;44.874;-1.092;2023-02-22T06:05:00;28.20;;;7.90;;
9783;SDS011;4931;44.874;-1.092;2023-02-22T06:07:26;26.23;;;8.05;;
9783;SDS011;4931;44.874;-1.092;2023-02-22T06:09:52;23.85;;;7.30;;
9783;SDS011;4931;44.874;-1.092;2023-02-22T06:12:17;28.17;;;7.75;;
9783;SDS011;4931;44.874;-1.092;2023-02-22T06:14:43;25.00;;;7.43;;
9783;SDS011;4931;44.874;-1.092;2023-02-22T06:17:13;23.55;;;6.93;;
9783;SDS011;4931;44.874;-1.092;2023-02-22T06:19:39;23.65;;;6.93;;
9783;SDS011;4931;44.874;-1.092;2023-02-22T06:22:05;23.65;;;6.85;;
9783;SDS011;4931;44.874;-1.092;2023-02-22T06:24:31;21.05;;;7.35;;
9783;SDS011;4931;44.874;-1.092;2023-02-22T06:26:58;21.98;;;7.03;;
9783;SDS011;4931;44.874;-1.092;2023-02-22T06:29:26;20.85;;;6.88;;
9783;SDS011;4931;44.874;-1.092;2023-02-22T06:31:52;30.10;;;6.68;;
9783;SDS011;4931;44.874;-1.092;2023-02-22T06:34:18;19.95;;;6.45;;
9783;SDS011;4931;44.874;-1.092;2023-02-22T06:36:46;25.40;;;6.80;;
9783;SDS011;4931;44.874;-1.092;2023-02-22T06:39:13;22.90;;;6.20;;
9783;SDS011;4931;44.874;-1.092;2023-02-22T06:41:43;22.25;;;6.30;;
9783;SDS011;4931;44.874;-1.092;2023-02-22T06:44:09;20.95;;;6.57;;
9783;SDS011;4931;44.874;-1.092;2023-02-22T06:46:36;25.48;;;6.63;;
9783;SDS011;4931;44.874;-1.092;2023-02-22T06:49:02;20.85;;;7.07;;
9783;SDS011;4931;44.874;-1.092;2023-02-22T06:51:28;23.20;;;7.18;;
9783;SDS011;4931;44.874;-1.092;2023-02-22T06:53:55;24.40;;;6.53;;
9783;SDS011;4931;44.874;-1.092;2023-02-22T06:56:21;24.90;;;6.38;;
9783;SDS011;4931;44.874;-1.092;2023-02-22T06:58:46;23.13;;;6.30;;
9783;SDS011;4931;44.874;-1.092;2023-02-22T07:01:13;24.83;;;6.88;;
9783;SDS011;4931;44.874;-1.092;2023-02-22T07:03:39;21.60;;;6.47;;
9783;SDS011;4931;44.874;-1.092;2023-02-22T07:06:05;29.38;;;7.22;;
9783;SDS011;4931;44.874;-1.092;2023-02-22T07:08:31;24.73;;;7.10;;
9783;SDS011;4931;44.874;-1.092;2023-02-22T07:10:56;28.85;;;6.82;;
9783;SDS011;4931;44.874;-1.092;2023-02-22T07:13:22;23.75;;;7.78;;
9783;SDS011;4931;44.874;-1.092;2023-02-22T07:15:47;24.30;;;8.02;;
9783;SDS011;4931;44.874;-1.092;2023-02-22T07:18:13;26.05;;;7.97;;
9783;SDS011;4931;44.874;-1.092;2023-02-22T07:20:40;24.85;;;8.40;;
9783;SDS011;4931;44.874;-1.092;2023-02-22T07:23:06;30.75;;;9.63;;
9783;SDS011;4931;44.874;-1.092;2023-02-22T07:25:32;25.45;;;9.07;;
9783;SDS011;4931;44.874;-1.092;2023-02-22T07:27:57;28.35;;;9.73;;
9783;SDS011;4931;44.874;-1.092;2023-02-22T07:30:30;32.53;;;9.57;;
9783;SDS011;4931;44.874;-1.092;2023-02-22T07:32:58;31.42;;;10.35;;
9783;SDS011;4931;44.874;-1.092;2023-02-22T07:35:26;31.05;;;10.43;;
9783;SDS011;4931;44.874;-1.092;2023-02-22T07:37:56;30.38;;;9.60;;
9783;SDS011;4931;44.874;-1.092;2023-02-22T07:40:23;30.73;;;10.98;;
9783;SDS011;4931;44.874;-1.092;2023-02-22T07:42:56;32.83;;;10.98;;
9783;SDS011;4931;44.874;-1.092;2023-02-22T07:45:25;30.85;;;10.15;;
9783;SDS011;4931;44.874;-1.092;2023-02-22T07:47:55;31.50;;;10.52;;
9783;SDS011;4931;44.874;-1.092;2023-02-22T07:50:21;33.00;;;11.20;;
9783;SDS011;4931;44.874;-1.092;2023-02-22T07:52:49;34.60;;;10.95;;
9783;SDS011;4931;44.874;-1.092;2023-02-22T07:55:17;31.15;;;9.90;;
9783;SDS011;4931;44.874;-1.092;2023-02-22T07:57:45;29.98;;;10.52;;
9783;SDS011;4931;44.874;-1.092;2023-02-22T08:00:12;30.67;;;11.88;;
9783;SDS011;4931;44.874;-1.092;2023-02-22T08:02:39;34.83;;;14.18;;
9783;SDS011;4931;44.874;-1.092;2023-02-22T08:05:06;33.22;;;11.45;;
9783;SDS011;4931;44.874;-1.092;2023-02-22T08:07:34;29.50;;;10.90;;
9783;SDS011;4931;44.874;-1.092;2023-02-22T08:10:00;42.38;;;13.68;;
9783;SDS011;4931;44.874;-1.092;2023-02-22T08:12:30;50.58;;;19.98;;
9783;SDS011;4931;44.874;-1.092;2023-02-22T08:14:55;54.67;;;22.63;;
9783;SDS011;4931;44.874;-1.092;2023-02-22T08:17:20;48.60;;;18.23;;
9783;SDS011;4931;44.874;-1.092;2023-02-22T08:19:46;39.05;;;14.25;;
9783;SDS011;4931;44.874;-1.092;2023-02-22T08:22:12;39.35;;;12.68;;
9783;SDS011;4931;44.874;-1.092;2023-02-22T08:24:37;33.75;;;13.55;;
9783;SDS011;4931;44.874;-1.092;2023-02-22T08:27:03;37.60;;;11.93;;
9783;SDS011;4931;44.874;-1.092;2023-02-22T08:29:28;35.40;;;9.88;;
9783;SDS011;4931;44.874;-1.092;2023-02-22T08:31:57;27.42;;;9.88;;
9783;SDS011;4931;44.874;-1.092;2023-02-22T08:34:23;31.83;;;9.98;;
9783;SDS011;4931;44.874;-1.092;2023-02-22T08:36:49;28.55;;;8.45;;
9783;SDS011;4931;44.874;-1.092;2023-02-22T08:39:14;30.00;;;9.20;;
9783;SDS011;4931;44.874;-1.092;2023-02-22T08:41:40;30.77;;;9.27;;
9783;SDS011;4931;44.874;-1.092;2023-02-22T08:44:05;23.52;;;8.95;;
9783;SDS011;4931;44.874;-1.092;2023-02-22T08:46:31;28.50;;;9.82;;
9783;SDS011;4931;44.874;-1.092;2023-02-22T08:48:56;28.40;;;9.40;;
9783;SDS011;4931;44.874;-1.092;2023-02-22T08:51:22;30.92;;;10.10;;
9783;SDS011;4931;44.874;-1.092;2023-02-22T08:53:47;31.35;;;9.20;;
9783;SDS011;4931;44.874;-1.092;2023-02-22T08:56:13;26.83;;;8.82;;
9783;SDS011;4931;44.874;-1.092;2023-02-22T08:58:38;31.23;;;8.52;;
9783;SDS011;4931;44.874;-1.092;2023-02-22T09:01:04;34.72;;;9.18;;
9783;SDS011;4931;44.874;-1.092;2023-02-22T09:03:29;22.17;;;8.50;;
9783;SDS011;4931;44.874;-1.092;2023-02-22T09:05:54;28.92;;;7.97;;
9783;SDS011;4931;44.874;-1.092;2023-02-22T09:08:20;30.08;;;7.85;;
9783;SDS011;4931;44.874;-1.092;2023-02-22T09:10:46;28.30;;;8.20;;
9783;SDS011;4931;44.874;-1.092;2023-02-22T09:13:13;27.35;;;8.98;;
9783;SDS011;4931;44.874;-1.092;2023-02-22T09:15:39;23.52;;;8.82;;
9783;SDS011;4931;44.874;-1.092;2023-02-22T09:18:05;31.73;;;8.75;;
9783;SDS011;4931;44.874;-1.092;2023-02-22T09:20:32;25.40;;;9.10;;
9783;SDS011;4931;44.874;-1.092;2023-02-22T09:23:00;30.35;;;8.68;;
9783;SDS011;4931;44.874;-1.092;2023-02-22T09:25:27;22.50;;;7.97;;
9783;SDS011;4931;44.874;-1.092;2023-02-22T09:27:54;24.33;;;8.20;;
9783;SDS011;4931;44.874;-1.092;2023-02-22T09:30:25;23.00;;;8.35;;
9783;SDS011;4931;44.874;-1.092;2023-02-22T09:32:59;25.33;;;8.60;;
9783;SDS011;4931;44.874;-1.092;2023-02-22T09:35:27;28.65;;;7.65;;
9783;SDS011;4931;44.874;-1.092;2023-02-22T09:37:56;23.42;;;7.75;;
9783;SDS011;4931;44.874;-1.092;2023-02-22T09:40:25;20.13;;;7.85;;
9783;SDS011;4931;44.874;-1.092;2023-02-22T09:47:58;26.05;;;8.93;;
9783;SDS011;4931;44.874;-1.092;2023-02-22T09:50:30;23.50;;;9.20;;
9783;SDS011;4931;44.874;-1.092;2023-02-22T09:53:04;23.50;;;8.93;;
9783;SDS011;4931;44.874;-1.092;2023-02-22T09:55:46;27.67;;;9.90;;
9783;SDS011;4931;44.874;-1.092;2023-02-22T09:58:19;30.73;;;9.68;;
9783;SDS011;4931;44.874;-1.092;2023-02-22T10:00:50;29.02;;;9.90;;
9783;SDS011;4931;44.874;-1.092;2023-02-22T10:08:32;27.13;;;10.65;;
9783;SDS011;4931;44.874;-1.092;2023-02-22T10:14:18;37.20;;;11.80;;
9783;SDS011;4931;44.874;-1.092;2023-02-22T10:16:37;32.65;;;11.90;;
9783;SDS011;4931;44.874;-1.092;2023-02-22T10:27:05;36.00;;;11.25;;
9783;SDS011;4931;44.874;-1.092;2023-02-22T10:29:40;38.55;;;11.13;;
9783;SDS011;4931;44.874;-1.092;2023-02-22T10:32:12;35.92;;;11.40;;
9783;SDS011;4931;44.874;-1.092;2023-02-22T10:37:23;33.20;;;11.50;;
9783;SDS011;4931;44.874;-1.092;2023-02-22T10:39:52;35.40;;;10.82;;
9783;SDS011;4931;44.874;-1.092;2023-02-22T10:42:24;30.98;;;9.45;;
9783;SDS011;4931;44.874;-1.092;2023-02-22T10:44:51;35.55;;;9.43;;
9783;SDS011;4931;44.874;-1.092;2023-02-22T10:47:17;30.67;;;9.10;;
9783;SDS011;4931;44.874;-1.092;2023-02-22T10:49:57;41.75;;;9.07;;
9783;SDS011;4931;44.874;-1.092;2023-02-22T10:52:29;30.38;;;8.90;;
9783;SDS011;4931;44.874;-1.092;2023-02-22T10:54:58;24.70;;;8.07;;
9783;SDS011;4931;44.874;-1.092;2023-02-22T10:57:26;26.27;;;6.72;;
9783;SDS011;4931;44.874;-1.092;2023-02-22T10:59:55;25.33;;;6.82;;
9783;SDS011;4931;44.874;-1.092;2023-02-22T11:02:29;28.95;;;7.20;;
9783;SDS011;4931;44.874;-1.092;2023-02-22T11:04:57;25.13;;;6.53;;
9783;SDS011;4931;44.874;-1.092;2023-02-22T11:07:29;22.83;;;6.47;;
9783;SDS011;4931;44.874;-1.092;2023-02-22T11:09:55;18.33;;;5.35;;
9783;SDS011;4931;44.874;-1.092;2023-02-22T11:12:32;21.48;;;5.20;;
9783;SDS011;4931;44.874;-1.092;2023-02-22T11:17:51;20.35;;;5.05;;
9783;SDS011;4931;44.874;-1.092;2023-02-22T11:20:23;18.77;;;5.25;;
9783;SDS011;4931;44.874;-1.092;2023-02-22T11:22:53;15.50;;;4.95;;
9783;SDS011;4931;44.874;-1.092;2023-02-22T11:25:25;16.42;;;4.75;;
9783;SDS011;4931;44.874;-1.092;2023-02-22T11:27:54;17.00;;;4.97;;
9783;SDS011;4931;44.874;-1.092;2023-02-22T11:30:30;19.60;;;5.03;;
9783;SDS011;4931;44.874;-1.092;2023-02-22T11:36:02;20.13;;;5.30;;
9783;SDS011;4931;44.874;-1.092;2023-02-22T11:38:31;17.58;;;5.25;;
9783;SDS011;4931;44.874;-1.092;2023-02-22T11:41:12;17.92;;;4.85;;
9783;SDS011;4931;44.874;-1.092;2023-02-22T11:44:20;19.30;;;4.80;;
9783;SDS011;4931;44.874;-1.092;2023-02-22T11:46:50;17.88;;;5.15;;
9783;SDS011;4931;44.874;-1.092;2023-02-22T11:49:19;23.80;;;5.32;;
9783;SDS011;4931;44.874;-1.092;2023-02-22T12:02:50;19.95;;;6.78;;
9783;SDS011;4931;44.874;-1.092;2023-02-22T12:11:04;19.02;;;4.60;;
9783;SDS011;4931;44.874;-1.092;2023-02-22T12:16:13;18.48;;;4.35;;
9783;SDS011;4931;44.874;-1.092;2023-02-22T12:19:07;20.02;;;4.75;;
9783;SDS011;4931;44.874;-1.092;2023-02-22T12:21:35;18.27;;;4.63;;
9783;SDS011;4931;44.874;-1.092;2023-02-22T12:34:46;23.90;;;5.47;;
9783;SDS011;4931;44.874;-1.092;2023-02-22T12:37:34;20.40;;;5.15;;
9783;SDS011;4931;44.874;-1.092;2023-02-22T12:40:26;15.88;;;4.90;;
9783;SDS011;4931;44.874;-1.092;2023-02-22T12:46:05;19.08;;;4.53;;
9783;SDS011;4931;44.874;-1.092;2023-02-22T12:48:43;14.73;;;4.72;;
9783;SDS011;4931;44.874;-1.092;2023-02-22T12:53:38;17.58;;;4.68;;
9783;SDS011;4931;44.874;-1.092;2023-02-22T12:58:59;14.27;;;4.50;;
9783;SDS011;4931;44.874;-1.092;2023-02-22T13:01:39;14.50;;;3.88;;
9783;SDS011;4931;44.874;-1.092;2023-02-22T13:04:14;10.95;;;4.10;;
9783;SDS011;4931;44.874;-1.092;2023-02-22T13:12:07;15.05;;;3.97;;
9783;SDS011;4931;44.874;-1.092;2023-02-22T13:17:41;8.75;;;3.10;;
9783;SDS011;4931;44.874;-1.092;2023-02-22T13:23:32;9.25;;;2.50;;
9783;SDS011;4931;44.874;-1.092;2023-02-22T13:26:04;11.95;;;2.90;;
9783;SDS011;4931;44.874;-1.092;2023-02-22T13:28:59;8.10;;;2.70;;
9783;SDS011;4931;44.874;-1.092;2023-02-22T13:34:43;6.43;;;2.95;;
9783;SDS011;4931;44.874;-1.092;2023-02-22T13:53:47;9.63;;;2.75;;
9783;SDS011;4931;44.874;-1.092;2023-02-22T13:56:20;8.00;;;2.80;;
9783;SDS011;4931;44.874;-1.092;2023-02-22T13:58:51;13.60;;;3.00;;
9783;SDS011;4931;44.874;-1.092;2023-02-22T14:01:35;10.80;;;2.83;;
9783;SDS011;4931;44.874;-1.092;2023-02-22T14:06:53;10.05;;;2.75;;
9783;SDS011;4931;44.874;-1.092;2023-02-22T14:09:54;13.05;;;3.03;;
9783;SDS011;4931;44.874;-1.092;2023-02-22T14:17:34;7.80;;;2.97;;
9783;SDS011;4931;44.874;-1.092;2023-02-22T14:22:42;9.23;;;2.78;;
9783;SDS011;4931;44.874;-1.092;2023-02-22T14:28:06;10.88;;;3.05;;
9783;SDS011;4931;44.874;-1.092;2023-02-22T14:31:02;16.40;;;2.80;;
9783;SDS011;4931;44.874;-1.092;2023-02-22T14:38:56;13.38;;;3.08;;
9783;SDS011;4931;44.874;-1.092;2023-02-22T14:41:49;11.70;;;3.35;;
9783;SDS011;4931;44.874;-1.092;2023-02-22T14:44:27;10.38;;;2.83;;
9783;SDS011;4931;44.874;-1.092;2023-02-22T14:46:57;11.23;;;2.58;;
9783;SDS011;4931;44.874;-1.092;2023-02-22T14:49:29;11.88;;;2.65;;
9783;SDS011;4931;44.874;-1.092;2023-02-22T14:52:01;9.55;;;2.42;;
9783;SDS011;4931;44.874;-1.092;2023-02-22T14:54:38;14.13;;;3.17;;
9783;SDS011;4931;44.874;-1.092;2023-02-22T14:57:22;7.97;;;2.80;;
9783;SDS011;4931;44.874;-1.092;2023-02-22T15:00:03;11.00;;;3.15;;
9783;SDS011;4931;44.874;-1.092;2023-02-22T15:02:52;9.90;;;2.70;;
9783;SDS011;4931;44.874;-1.092;2023-02-22T15:05:21;9.45;;;2.47;;
9783;SDS011;4931;44.874;-1.092;2023-02-22T15:07:51;7.97;;;2.40;;
9783;SDS011;4931;44.874;-1.092;2023-02-22T15:10:21;9.48;;;2.10;;
9783;SDS011;4931;44.874;-1.092;2023-02-22T15:12:50;13.93;;;2.17;;
9783;SDS011;4931;44.874;-1.092;2023-02-22T15:15:21;11.18;;;2.28;;
9783;SDS011;4931;44.874;-1.092;2023-02-22T15:17:51;10.43;;;2.35;;
9783;SDS011;4931;44.874;-1.092;2023-02-22T15:22:44;9.73;;;2.40;;
9783;SDS011;4931;44.874;-1.092;2023-02-22T15:25:12;12.02;;;3.90;;
9783;SDS011;4931;44.874;-1.092;2023-02-22T15:27:37;17.33;;;5.28;;
9783;SDS011;4931;44.874;-1.092;2023-02-22T15:30:20;11.00;;;2.97;;
9783;SDS011;4931;44.874;-1.092;2023-02-22T15:32:50;10.88;;;2.97;;
9783;SDS011;4931;44.874;-1.092;2023-02-22T15:37:58;9.35;;;2.45;;
9783;SDS011;4931;44.874;-1.092;2023-02-22T15:40:28;13.30;;;7.50;;
9783;SDS011;4931;44.874;-1.092;2023-02-22T15:43:00;11.70;;;3.80;;
9783;SDS011;4931;44.874;-1.092;2023-02-22T15:45:32;11.05;;;4.32;;
9783;SDS011;4931;44.874;-1.092;2023-02-22T15:47:59;10.73;;;3.38;;
9783;SDS011;4931;44.874;-1.092;2023-02-22T15:52:58;26.45;;;9.73;;
9783;SDS011;4931;44.874;-1.092;2023-02-22T15:58:18;38.08;;;21.83;;
9783;SDS011;4931;44.874;-1.092;2023-02-22T16:01:02;15.23;;;6.15;;
9783;SDS011;4931;44.874;-1.092;2023-02-22T16:03:42;29.38;;;14.80;;
9783;SDS011;4931;44.874;-1.092;2023-02-22T16:06:27;21.83;;;5.97;;
9783;SDS011;4931;44.874;-1.092;2023-02-22T16:08:58;17.85;;;7.20;;
9783;SDS011;4931;44.874;-1.092;2023-02-22T16:11:30;14.10;;;5.30;;
9783;SDS011;4931;44.874;-1.092;2023-02-22T16:14:01;22.63;;;7.75;;
9783;SDS011;4931;44.874;-1.092;2023-02-22T16:16:35;21.17;;;5.68;;
9783;SDS011;4931;44.874;-1.092;2023-02-22T16:19:21;17.92;;;5.47;;
9783;SDS011;4931;44.874;-1.092;2023-02-22T16:21:56;20.25;;;6.10;;
9783;SDS011;4931;44.874;-1.092;2023-02-22T16:24:30;20.90;;;7.15;;
9783;SDS011;4931;44.874;-1.092;2023-02-22T16:27:06;19.27;;;6.50;;
9783;SDS011;4931;44.874;-1.092;2023-02-22T16:29:31;26.73;;;9.38;;
9783;SDS011;4931;44.874;-1.092;2023-02-22T16:31:57;20.60;;;7.75;;
9783;SDS011;4931;44.874;-1.092;2023-02-22T16:34:22;23.83;;;7.20;;
9783;SDS011;4931;44.874;-1.092;2023-02-22T16:36:48;34.28;;;12.50;;
9783;SDS011;4931;44.874;-1.092;2023-02-22T16:39:23;25.83;;;8.05;;
9783;SDS011;4931;44.874;-1.092;2023-02-22T16:41:51;35.42;;;12.63;;
9783;SDS011;4931;44.874;-1.092;2023-02-22T16:44:22;24.40;;;8.68;;
9783;SDS011;4931;44.874;-1.092;2023-02-22T16:46:50;23.48;;;7.65;;
9783;SDS011;4931;44.874;-1.092;2023-02-22T16:49:16;31.30;;;8.60;;
9783;SDS011;4931;44.874;-1.092;2023-02-22T16:51:52;32.85;;;11.90;;
9783;SDS011;4931;44.874;-1.092;2023-02-22T16:54:30;37.42;;;13.15;;
9783;SDS011;4931;44.874;-1.092;2023-02-22T16:57:01;30.73;;;11.18;;
9783;SDS011;4931;44.874;-1.092;2023-02-22T16:59:29;28.95;;;8.93;;
9783;SDS011;4931;44.874;-1.092;2023-02-22T17:01:57;28.88;;;9.70;;
9783;SDS011;4931;44.874;-1.092;2023-02-22T17:04:24;29.70;;;8.85;;
9783;SDS011;4931;44.874;-1.092;2023-02-22T17:06:50;36.17;;;9.13;;
9783;SDS011;4931;44.874;-1.092;2023-02-22T17:09:16;29.20;;;9.68;;
9783;SDS011;4931;44.874;-1.092;2023-02-22T17:11:44;32.53;;;10.00;;
9783;SDS011;4931;44.874;-1.092;2023-02-22T17:14:15;27.48;;;10.07;;
9783;SDS011;4931;44.874;-1.092;2023-02-22T17:16:44;25.95;;;10.57;;
9783;SDS011;4931;44.874;-1.092;2023-02-22T17:19:17;34.05;;;11.10;;
9783;SDS011;4931;44.874;-1.092;2023-02-22T17:21:44;32.20;;;11.88;;
9783;SDS011;4931;44.874;-1.092;2023-02-22T17:24:11;25.63;;;9.40;;
9783;SDS011;4931;44.874;-1.092;2023-02-22T17:26:39;28.58;;;8.80;;
9783;SDS011;4931;44.874;-1.092;2023-02-22T17:29:05;28.33;;;9.10;;
9783;SDS011;4931;44.874;-1.092;2023-02-22T17:31:30;24.88;;;8.05;;
9783;SDS011;4931;44.874;-1.092;2023-02-22T17:33:57;25.58;;;7.30;;
9783;SDS011;4931;44.874;-1.092;2023-02-22T17:36:28;20.30;;;6.15;;
9783;SDS011;4931;44.874;-1.092;2023-02-22T17:38:54;18.65;;;5.65;;
9783;SDS011;4931;44.874;-1.092;2023-02-22T17:41:20;15.45;;;4.60;;
9783;SDS011;4931;44.874;-1.092;2023-02-22T17:43:46;10.88;;;3.38;;
9783;SDS011;4931;44.874;-1.092;2023-02-22T17:46:11;10.40;;;3.38;;